sensor_id;sensor_type;location;lat;lon;timestamp;P1;durP1;ratioP1;P2;durP2;ratioP2
32146;SDS011;32190;49.112;8.598;2022-09-25T00:03:07;1.58;;;1.48;;
32146;SDS011;32190;49.112;8.598;2022-09-25T00:09:18;0.95;;;0.95;;
32146;SDS011;32190;49.112;8.598;2022-09-25T00:15:10;1.48;;;1.38;;
32146;SDS011;32190;49.112;8.598;2022-09-25T00:21:09;1.70;;;1.60;;
32146;SDS011;32190;49.112;8.598;2022-09-25T00:27:13;1.40;;;1.30;;
32146;SDS011;32190;49.112;8.598;2022-09-25T00:33:04;1.05;;;1.05;;
32146;SDS011;32190;49.112;8.598;2022-09-25T00:38:58;2.40;;;1.98;;
32146;SDS011;32190;49.112;8.598;2022-09-25T00:45:16;1.63;;;1.52;;
32146;SDS011;32190;49.112;8.598;2022-09-25T00:51:10;2.70;;;1.98;;
32146;SDS011;32190;49.112;8.598;2022-09-25T01:03:25;2.90;;;2.03;;
32146;SDS011;32190;49.112;8.598;2022-09-25T01:09:16;2.90;;;2.70;;
32146;SDS011;32190;49.112;8.598;2022-09-25T01:15:08;2.40;;;2.20;;
32146;SDS011;32190;49.112;8.598;2022-09-25T01:34:04;2.03;;;1.77;;
32146;SDS011;32190;49.112;8.598;2022-09-25T01:40:07;1.95;;;1.85;;
32146;SDS011;32190;49.112;8.598;2022-09-25T01:46:08;2.80;;;2.60;;
32146;SDS011;32190;49.112;8.598;2022-09-25T01:52:21;1.15;;;1.05;;
32146;SDS011;32190;49.112;8.598;2022-09-25T01:58:23;2.30;;;2.10;;
32146;SDS011;32190;49.112;8.598;2022-09-25T02:04:52;2.15;;;2.00;;
32146;SDS011;32190;49.112;8.598;2022-09-25T02:11:00;2.90;;;2.10;;
32146;SDS011;32190;49.112;8.598;2022-09-25T02:16:53;1.55;;;1.45;;
32146;SDS011;32190;49.112;8.598;2022-09-25T02:22:47;1.65;;;1.55;;
32146;SDS011;32190;49.112;8.598;2022-09-25T02:28:42;2.78;;;2.35;;
32146;SDS011;32190;49.112;8.598;2022-09-25T02:34:33;2.10;;;1.92;;
32146;SDS011;32190;49.112;8.598;2022-09-25T02:59:39;1.85;;;1.60;;
32146;SDS011;32190;49.112;8.598;2022-09-25T03:05:35;1.67;;;1.58;;
32146;SDS011;32190;49.112;8.598;2022-09-25T03:11:26;3.45;;;3.03;;
32146;SDS011;32190;49.112;8.598;2022-09-25T03:17:33;2.42;;;1.83;;
32146;SDS011;32190;49.112;8.598;2022-09-25T03:23:29;3.20;;;2.90;;
32146;SDS011;32190;49.112;8.598;2022-09-25T03:29:32;3.55;;;2.45;;
32146;SDS011;32190;49.112;8.598;2022-09-25T03:35:23;2.72;;;2.53;;
32146;SDS011;32190;49.112;8.598;2022-09-25T03:41:14;2.90;;;2.70;;
32146;SDS011;32190;49.112;8.598;2022-09-25T03:47:10;3.33;;;2.58;;
32146;SDS011;32190;49.112;8.598;2022-09-25T03:53:07;3.53;;;2.47;;
32146;SDS011;32190;49.112;8.598;2022-09-25T03:59:13;3.03;;;2.20;;
32146;SDS011;32190;49.112;8.598;2022-09-25T04:11:02;2.60;;;2.40;;
32146;SDS011;32190;49.112;8.598;2022-09-25T04:16:53;2.70;;;2.50;;
32146;SDS011;32190;49.112;8.598;2022-09-25T04:28:45;5.05;;;4.55;;
32146;SDS011;32190;49.112;8.598;2022-09-25T04:34:42;4.73;;;4.27;;
32146;SDS011;32190;49.112;8.598;2022-09-25T04:46:45;4.88;;;4.15;;
32146;SDS011;32190;49.112;8.598;2022-09-25T05:04:37;2.50;;;2.03;;
32146;SDS011;32190;49.112;8.598;2022-09-25T05:10:52;1.60;;;1.50;;
32146;SDS011;32190;49.112;8.598;2022-09-25T05:16:57;1.85;;;1.38;;
32146;SDS011;32190;49.112;8.598;2022-09-25T05:22:47;1.58;;;1.48;;
32146;SDS011;32190;49.112;8.598;2022-09-25T05:28:38;1.83;;;1.73;;
32146;SDS011;32190;49.112;8.598;2022-09-25T05:34:29;1.25;;;1.15;;
32146;SDS011;32190;49.112;8.598;2022-09-25T05:40:19;2.05;;;1.33;;
32146;SDS011;32190;49.112;8.598;2022-09-25T05:46:23;1.00;;;0.93;;
32146;SDS011;32190;49.112;8.598;2022-09-25T05:52:16;1.15;;;1.08;;
32146;SDS011;32190;49.112;8.598;2022-09-25T06:04:07;1.45;;;1.00;;
32146;SDS011;32190;49.112;8.598;2022-09-25T06:09:59;0.77;;;0.77;;
32146;SDS011;32190;49.112;8.598;2022-09-25T06:15:50;1.50;;;1.00;;
32146;SDS011;32190;49.112;8.598;2022-09-25T06:21:42;0.68;;;0.68;;
32146;SDS011;32190;49.112;8.598;2022-09-25T06:27:32;0.73;;;0.73;;
32146;SDS011;32190;49.112;8.598;2022-09-25T06:33:23;1.05;;;0.93;;
32146;SDS011;32190;49.112;8.598;2022-09-25T06:39:14;0.70;;;0.70;;
32146;SDS011;32190;49.112;8.598;2022-09-25T06:45:04;0.90;;;0.90;;
32146;SDS011;32190;49.112;8.598;2022-09-25T06:50:56;1.00;;;1.00;;
32146;SDS011;32190;49.112;8.598;2022-09-25T06:56:50;0.68;;;0.60;;
32146;SDS011;32190;49.112;8.598;2022-09-25T07:02:41;0.32;;;0.32;;
32146;SDS011;32190;49.112;8.598;2022-09-25T07:08:50;0.38;;;0.38;;
32146;SDS011;32190;49.112;8.598;2022-09-25T07:15:00;0.52;;;0.52;;
32146;SDS011;32190;49.112;8.598;2022-09-25T07:27:19;0.50;;;0.50;;
32146;SDS011;32190;49.112;8.598;2022-09-25T07:33:10;0.45;;;0.45;;
32146;SDS011;32190;49.112;8.598;2022-09-25T07:39:01;0.40;;;0.40;;
32146;SDS011;32190;49.112;8.598;2022-09-25T07:44:58;0.50;;;0.50;;
32146;SDS011;32190;49.112;8.598;2022-09-25T07:50:49;0.40;;;0.40;;
32146;SDS011;32190;49.112;8.598;2022-09-25T07:56:43;0.38;;;0.38;;
32146;SDS011;32190;49.112;8.598;2022-09-25T08:02:33;0.50;;;0.50;;
32146;SDS011;32190;49.112;8.598;2022-09-25T08:08:25;0.60;;;0.60;;
32146;SDS011;32190;49.112;8.598;2022-09-25T08:14:19;0.65;;;0.40;;
32146;SDS011;32190;49.112;8.598;2022-09-25T08:20:10;0.77;;;0.77;;
32146;SDS011;32190;49.112;8.598;2022-09-25T08:26:01;0.68;;;0.68;;
32146;SDS011;32190;49.112;8.598;2022-09-25T08:31:51;0.80;;;0.80;;
32146;SDS011;32190;49.112;8.598;2022-09-25T08:37:42;0.85;;;0.85;;
32146;SDS011;32190;49.112;8.598;2022-09-25T08:43:54;0.90;;;0.90;;
32146;SDS011;32190;49.112;8.598;2022-09-25T08:50:09;0.80;;;0.80;;
32146;SDS011;32190;49.112;8.598;2022-09-25T08:56:03;1.00;;;1.00;;
32146;SDS011;32190;49.112;8.598;2022-09-25T09:02:15;0.60;;;0.60;;
32146;SDS011;32190;49.112;8.598;2022-09-25T09:08:19;0.70;;;0.70;;
32146;SDS011;32190;49.112;8.598;2022-09-25T09:14:15;0.40;;;0.40;;
32146;SDS011;32190;49.112;8.598;2022-09-25T09:20:16;0.80;;;0.80;;
32146;SDS011;32190;49.112;8.598;2022-09-25T09:26:15;0.70;;;0.70;;
32146;SDS011;32190;49.112;8.598;2022-09-25T09:32:24;1.17;;;0.90;;
32146;SDS011;32190;49.112;8.598;2022-09-25T09:56:31;2.13;;;2.03;;
32146;SDS011;32190;49.112;8.598;2022-09-25T10:02:43;1.85;;;1.75;;
32146;SDS011;32190;49.112;8.598;2022-09-25T10:08:35;2.10;;;2.00;;
32146;SDS011;32190;49.112;8.598;2022-09-25T10:14:28;1.08;;;1.08;;
32146;SDS011;32190;49.112;8.598;2022-09-25T10:20:22;1.03;;;1.00;;
32146;SDS011;32190;49.112;8.598;2022-09-25T10:32:14;1.00;;;1.00;;
32146;SDS011;32190;49.112;8.598;2022-09-25T10:38:15;1.13;;;1.13;;
32146;SDS011;32190;49.112;8.598;2022-09-25T10:50:23;1.77;;;1.67;;
32146;SDS011;32190;49.112;8.598;2022-09-25T10:56:29;1.67;;;1.58;;
32146;SDS011;32190;49.112;8.598;2022-09-25T11:02:34;2.60;;;2.40;;
32146;SDS011;32190;49.112;8.598;2022-09-25T11:08:31;2.20;;;1.65;;
32146;SDS011;32190;49.112;8.598;2022-09-25T11:14:28;5.82;;;1.70;;
32146;SDS011;32190;49.112;8.598;2022-09-25T11:20:23;1.50;;;1.40;;
32146;SDS011;32190;49.112;8.598;2022-09-25T11:26:19;0.98;;;0.98;;
32146;SDS011;32190;49.112;8.598;2022-09-25T11:44:54;1.90;;;1.35;;
32146;SDS011;32190;49.112;8.598;2022-09-25T11:57:18;1.50;;;1.40;;
32146;SDS011;32190;49.112;8.598;2022-09-25T12:16:01;1.85;;;1.75;;
32146;SDS011;32190;49.112;8.598;2022-09-25T12:22:12;1.48;;;1.38;;
32146;SDS011;32190;49.112;8.598;2022-09-25T12:40:42;1.88;;;1.77;;
32146;SDS011;32190;49.112;8.598;2022-09-25T12:46:48;1.55;;;1.45;;
32146;SDS011;32190;49.112;8.598;2022-09-25T12:52:55;1.15;;;1.10;;
32146;SDS011;32190;49.112;8.598;2022-09-25T13:05:07;1.02;;;0.77;;
32146;SDS011;32190;49.112;8.598;2022-09-25T13:17:10;1.08;;;1.08;;
32146;SDS011;32190;49.112;8.598;2022-09-25T13:29:32;0.90;;;0.80;;
32146;SDS011;32190;49.112;8.598;2022-09-25T13:54:30;1.35;;;1.20;;
32146;SDS011;32190;49.112;8.598;2022-09-25T14:13:18;1.10;;;1.07;;
32146;SDS011;32190;49.112;8.598;2022-09-25T14:19:54;2.35;;;1.35;;
32146;SDS011;32190;49.112;8.598;2022-09-25T14:46:46;3.53;;;2.65;;
32146;SDS011;32190;49.112;8.598;2022-09-25T14:52:41;2.97;;;2.67;;
32146;SDS011;32190;49.112;8.598;2022-09-25T14:58:40;2.95;;;2.67;;
32146;SDS011;32190;49.112;8.598;2022-09-25T15:18:38;4.03;;;3.67;;
32146;SDS011;32190;49.112;8.598;2022-09-25T15:38:11;2.88;;;2.65;;
32146;SDS011;32190;49.112;8.598;2022-09-25T15:44:17;2.53;;;2.33;;
32146;SDS011;32190;49.112;8.598;2022-09-25T15:56:43;3.05;;;2.13;;
32146;SDS011;32190;49.112;8.598;2022-09-25T16:02:47;2.35;;;1.65;;
32146;SDS011;32190;49.112;8.598;2022-09-25T16:09:22;1.95;;;1.70;;
32146;SDS011;32190;49.112;8.598;2022-09-25T16:21:20;2.60;;;1.40;;
32146;SDS011;32190;49.112;8.598;2022-09-25T16:27:25;1.73;;;1.63;;
32146;SDS011;32190;49.112;8.598;2022-09-25T16:33:26;1.20;;;1.10;;
32146;SDS011;32190;49.112;8.598;2022-09-25T16:39:36;1.42;;;1.08;;
32146;SDS011;32190;49.112;8.598;2022-09-25T16:45:32;1.75;;;1.40;;
32146;SDS011;32190;49.112;8.598;2022-09-25T16:51:23;2.22;;;2.00;;
32146;SDS011;32190;49.112;8.598;2022-09-25T16:57:34;2.55;;;1.90;;
32146;SDS011;32190;49.112;8.598;2022-09-25T17:03:25;2.58;;;1.10;;
32146;SDS011;32190;49.112;8.598;2022-09-25T17:09:39;1.80;;;1.50;;
32146;SDS011;32190;49.112;8.598;2022-09-25T17:15:31;2.13;;;1.45;;
32146;SDS011;32190;49.112;8.598;2022-09-25T17:21:32;2.00;;;1.80;;
32146;SDS011;32190;49.112;8.598;2022-09-25T17:27:28;1.58;;;1.20;;
32146;SDS011;32190;49.112;8.598;2022-09-25T17:33:21;0.88;;;0.88;;
32146;SDS011;32190;49.112;8.598;2022-09-25T17:39:12;1.48;;;1.38;;
32146;SDS011;32190;49.112;8.598;2022-09-25T17:45:39;1.23;;;1.13;;
32146;SDS011;32190;49.112;8.598;2022-09-25T17:51:53;1.30;;;1.20;;
32146;SDS011;32190;49.112;8.598;2022-09-25T17:57:58;2.47;;;1.13;;
32146;SDS011;32190;49.112;8.598;2022-09-25T18:03:58;0.75;;;0.75;;
32146;SDS011;32190;49.112;8.598;2022-09-25T18:09:53;1.60;;;1.10;;
32146;SDS011;32190;49.112;8.598;2022-09-25T18:15:46;0.70;;;0.70;;
32146;SDS011;32190;49.112;8.598;2022-09-25T18:21:39;1.02;;;0.70;;
32146;SDS011;32190;49.112;8.598;2022-09-25T18:28:02;1.27;;;1.17;;
32146;SDS011;32190;49.112;8.598;2022-09-25T18:33:53;0.90;;;0.82;;
32146;SDS011;32190;49.112;8.598;2022-09-25T18:40:20;1.02;;;1.02;;
32146;SDS011;32190;49.112;8.598;2022-09-25T18:52:06;0.68;;;0.60;;
32146;SDS011;32190;49.112;8.598;2022-09-25T18:58:40;1.15;;;1.02;;
32146;SDS011;32190;49.112;8.598;2022-09-25T19:04:48;0.88;;;0.80;;
32146;SDS011;32190;49.112;8.598;2022-09-25T19:10:43;4.20;;;1.35;;
32146;SDS011;32190;49.112;8.598;2022-09-25T19:16:43;0.93;;;0.80;;
32146;SDS011;32190;49.112;8.598;2022-09-25T19:22:34;0.82;;;0.82;;
32146;SDS011;32190;49.112;8.598;2022-09-25T19:28:25;0.85;;;0.82;;
32146;SDS011;32190;49.112;8.598;2022-09-25T19:34:16;1.75;;;0.70;;
32146;SDS011;32190;49.112;8.598;2022-09-25T19:40:11;0.75;;;0.75;;
32146;SDS011;32190;49.112;8.598;2022-09-25T19:46:20;0.80;;;0.80;;
32146;SDS011;32190;49.112;8.598;2022-09-25T19:52:11;3.08;;;1.20;;
32146;SDS011;32190;49.112;8.598;2022-09-25T19:58:03;0.68;;;0.60;;
32146;SDS011;32190;49.112;8.598;2022-09-25T20:03:53;0.60;;;0.60;;
32146;SDS011;32190;49.112;8.598;2022-09-25T20:10:01;0.93;;;0.93;;
32146;SDS011;32190;49.112;8.598;2022-09-25T20:15:52;2.42;;;1.00;;
32146;SDS011;32190;49.112;8.598;2022-09-25T20:22:00;0.70;;;0.70;;
32146;SDS011;32190;49.112;8.598;2022-09-25T20:28:02;0.80;;;0.80;;
32146;SDS011;32190;49.112;8.598;2022-09-25T20:33:56;0.63;;;0.63;;
32146;SDS011;32190;49.112;8.598;2022-09-25T20:40:11;0.88;;;0.88;;
32146;SDS011;32190;49.112;8.598;2022-09-25T20:46:07;0.95;;;0.88;;
32146;SDS011;32190;49.112;8.598;2022-09-25T20:52:11;1.40;;;0.90;;
32146;SDS011;32190;49.112;8.598;2022-09-25T21:04:25;0.73;;;0.60;;
32146;SDS011;32190;49.112;8.598;2022-09-25T21:10:32;1.33;;;0.60;;
32146;SDS011;32190;49.112;8.598;2022-09-25T21:16:26;1.13;;;1.13;;
32146;SDS011;32190;49.112;8.598;2022-09-25T21:22:21;1.15;;;0.98;;
32146;SDS011;32190;49.112;8.598;2022-09-25T21:28:12;1.27;;;1.17;;
32146;SDS011;32190;49.112;8.598;2022-09-25T21:34:11;2.38;;;1.70;;
32146;SDS011;32190;49.112;8.598;2022-09-25T21:40:06;1.77;;;1.30;;
32146;SDS011;32190;49.112;8.598;2022-09-25T21:45:57;1.75;;;1.30;;
32146;SDS011;32190;49.112;8.598;2022-09-25T21:51:49;0.90;;;0.90;;
32146;SDS011;32190;49.112;8.598;2022-09-25T21:57:41;1.17;;;1.15;;
32146;SDS011;32190;49.112;8.598;2022-09-25T22:03:32;1.35;;;1.17;;
32146;SDS011;32190;49.112;8.598;2022-09-25T22:09:27;1.25;;;1.10;;
32146;SDS011;32190;49.112;8.598;2022-09-25T22:15:21;0.90;;;0.90;;
32146;SDS011;32190;49.112;8.598;2022-09-25T22:21:15;1.25;;;1.13;;
32146;SDS011;32190;49.112;8.598;2022-09-25T22:27:13;1.48;;;0.95;;
32146;SDS011;32190;49.112;8.598;2022-09-25T22:33:04;1.55;;;1.45;;
32146;SDS011;32190;49.112;8.598;2022-09-25T22:38:55;0.85;;;0.75;;
32146;SDS011;32190;49.112;8.598;2022-09-25T22:44:46;1.13;;;1.13;;
32146;SDS011;32190;49.112;8.598;2022-09-25T22:50:36;1.30;;;1.20;;
32146;SDS011;32190;49.112;8.598;2022-09-25T22:56:36;0.73;;;0.73;;
32146;SDS011;32190;49.112;8.598;2022-09-25T23:02:26;0.88;;;0.88;;
32146;SDS011;32190;49.112;8.598;2022-09-25T23:08:17;2.05;;;1.52;;
32146;SDS011;32190;49.112;8.598;2022-09-25T23:14:17;1.13;;;1.13;;
32146;SDS011;32190;49.112;8.598;2022-09-25T23:20:10;1.02;;;1.00;;
32146;SDS011;32190;49.112;8.598;2022-09-25T23:26:05;1.52;;;1.42;;
32146;SDS011;32190;49.112;8.598;2022-09-25T23:31:57;1.75;;;1.65;;
32146;SDS011;32190;49.112;8.598;2022-09-25T23:37:51;1.85;;;1.75;;
32146;SDS011;32190;49.112;8.598;2022-09-25T23:43:43;1.65;;;1.50;;
32146;SDS011;32190;49.112;8.598;2022-09-25T23:49:39;2.28;;;2.08;;
32146;SDS011;32190;49.112;8.598;2022-09-25T23:55:30;1.63;;;1.52;;
